sensor_id;sensor_type;location;lat;lon;timestamp;P1;durP1;ratioP1;P2;durP2;ratioP2
46308;SDS011;32037;50.820;6.494;2023-03-02T00:01:52;3.22;;;2.42;;
46308;SDS011;32037;50.820;6.494;2023-03-02T00:04:23;2.58;;;2.30;;
46308;SDS011;32037;50.820;6.494;2023-03-02T00:06:54;3.33;;;2.50;;
46308;SDS011;32037;50.820;6.494;2023-03-02T00:09:27;4.78;;;2.67;;
46308;SDS011;32037;50.820;6.494;2023-03-02T00:11:57;2.55;;;2.30;;
46308;SDS011;32037;50.820;6.494;2023-03-02T00:14:25;3.17;;;2.42;;
46308;SDS011;32037;50.820;6.494;2023-03-02T00:16:54;5.10;;;2.38;;
46308;SDS011;32037;50.820;6.494;2023-03-02T00:19:22;3.65;;;2.90;;
46308;SDS011;32037;50.820;6.494;2023-03-02T00:21:51;3.35;;;2.58;;
46308;SDS011;32037;50.820;6.494;2023-03-02T00:24:20;2.72;;;1.88;;
46308;SDS011;32037;50.820;6.494;2023-03-02T00:26:50;2.63;;;2.22;;
46308;SDS011;32037;50.820;6.494;2023-03-02T00:29:18;2.88;;;2.00;;
46308;SDS011;32037;50.820;6.494;2023-03-02T00:31:47;2.55;;;2.35;;
46308;SDS011;32037;50.820;6.494;2023-03-02T00:34:16;2.20;;;1.80;;
46308;SDS011;32037;50.820;6.494;2023-03-02T00:36:44;2.20;;;2.00;;
46308;SDS011;32037;50.820;6.494;2023-03-02T00:39:15;2.72;;;2.10;;
46308;SDS011;32037;50.820;6.494;2023-03-02T00:41:46;2.72;;;2.45;;
46308;SDS011;32037;50.820;6.494;2023-03-02T00:44:16;4.38;;;2.30;;
46308;SDS011;32037;50.820;6.494;2023-03-02T00:46:45;2.90;;;2.40;;
46308;SDS011;32037;50.820;6.494;2023-03-02T00:49:13;2.58;;;2.38;;
46308;SDS011;32037;50.820;6.494;2023-03-02T00:51:42;2.90;;;2.28;;
46308;SDS011;32037;50.820;6.494;2023-03-02T00:54:29;2.50;;;1.85;;
46308;SDS011;32037;50.820;6.494;2023-03-02T00:57:17;3.05;;;2.38;;
46308;SDS011;32037;50.820;6.494;2023-03-02T01:00:07;2.90;;;2.60;;
46308;SDS011;32037;50.820;6.494;2023-03-02T01:02:56;2.60;;;2.20;;
46308;SDS011;32037;50.820;6.494;2023-03-02T01:05:44;3.17;;;2.40;;
46308;SDS011;32037;50.820;6.494;2023-03-02T01:08:31;4.60;;;2.58;;
46308;SDS011;32037;50.820;6.494;2023-03-02T01:11:19;1.83;;;1.60;;
46308;SDS011;32037;50.820;6.494;2023-03-02T01:14:08;3.90;;;3.17;;
46308;SDS011;32037;50.820;6.494;2023-03-02T01:16:57;3.85;;;2.45;;
46308;SDS011;32037;50.820;6.494;2023-03-02T01:19:44;2.55;;;2.00;;
46308;SDS011;32037;50.820;6.494;2023-03-02T01:22:32;4.15;;;3.00;;
46308;SDS011;32037;50.820;6.494;2023-03-02T01:25:01;2.47;;;1.83;;
46308;SDS011;32037;50.820;6.494;2023-03-02T01:27:30;2.38;;;2.00;;
46308;SDS011;32037;50.820;6.494;2023-03-02T01:29:58;2.20;;;2.00;;
46308;SDS011;32037;50.820;6.494;2023-03-02T01:32:31;3.50;;;2.60;;
46308;SDS011;32037;50.820;6.494;2023-03-02T01:34:59;3.70;;;2.47;;
46308;SDS011;32037;50.820;6.494;2023-03-02T01:37:28;2.65;;;2.00;;
46308;SDS011;32037;50.820;6.494;2023-03-02T01:39:56;3.70;;;2.33;;
46308;SDS011;32037;50.820;6.494;2023-03-02T01:42:25;2.85;;;2.38;;
46308;SDS011;32037;50.820;6.494;2023-03-02T01:44:54;4.35;;;2.38;;
46308;SDS011;32037;50.820;6.494;2023-03-02T01:47:24;3.03;;;2.50;;
46308;SDS011;32037;50.820;6.494;2023-03-02T01:50:04;3.00;;;2.42;;
46308;SDS011;32037;50.820;6.494;2023-03-02T01:52:46;2.97;;;2.25;;
46308;SDS011;32037;50.820;6.494;2023-03-02T01:55:18;2.85;;;2.30;;
46308;SDS011;32037;50.820;6.494;2023-03-02T01:57:51;2.15;;;1.85;;
46308;SDS011;32037;50.820;6.494;2023-03-02T02:00:22;4.88;;;2.92;;
46308;SDS011;32037;50.820;6.494;2023-03-02T02:02:53;3.35;;;2.55;;
46308;SDS011;32037;50.820;6.494;2023-03-02T02:05:36;2.53;;;2.03;;
46308;SDS011;32037;50.820;6.494;2023-03-02T02:08:07;3.10;;;2.40;;
46308;SDS011;32037;50.820;6.494;2023-03-02T02:10:37;3.78;;;2.40;;
46308;SDS011;32037;50.820;6.494;2023-03-02T02:13:08;3.72;;;2.63;;
46308;SDS011;32037;50.820;6.494;2023-03-02T02:15:37;3.13;;;2.50;;
46308;SDS011;32037;50.820;6.494;2023-03-02T02:18:25;2.55;;;2.20;;
46308;SDS011;32037;50.820;6.494;2023-03-02T02:20:56;2.95;;;2.33;;
46308;SDS011;32037;50.820;6.494;2023-03-02T02:23:25;3.35;;;2.70;;
46308;SDS011;32037;50.820;6.494;2023-03-02T02:26:10;3.33;;;2.08;;
46308;SDS011;32037;50.820;6.494;2023-03-02T02:28:46;3.78;;;2.80;;
46308;SDS011;32037;50.820;6.494;2023-03-02T02:31:27;2.63;;;1.95;;
46308;SDS011;32037;50.820;6.494;2023-03-02T02:34:02;3.78;;;2.50;;
46308;SDS011;32037;50.820;6.494;2023-03-02T02:36:34;4.03;;;2.60;;
46308;SDS011;32037;50.820;6.494;2023-03-02T02:39:13;3.85;;;2.90;;
46308;SDS011;32037;50.820;6.494;2023-03-02T02:41:47;2.92;;;2.47;;
46308;SDS011;32037;50.820;6.494;2023-03-02T02:44:18;3.00;;;2.70;;
46308;SDS011;32037;50.820;6.494;2023-03-02T02:46:47;2.42;;;2.22;;
46308;SDS011;32037;50.820;6.494;2023-03-02T02:49:20;3.70;;;2.50;;
46308;SDS011;32037;50.820;6.494;2023-03-02T02:51:55;3.00;;;2.38;;
46308;SDS011;32037;50.820;6.494;2023-03-02T02:54:24;3.80;;;2.90;;
46308;SDS011;32037;50.820;6.494;2023-03-02T02:56:56;4.28;;;2.83;;
46308;SDS011;32037;50.820;6.494;2023-03-02T02:59:27;4.95;;;2.75;;
46308;SDS011;32037;50.820;6.494;2023-03-02T03:01:59;2.83;;;2.50;;
46308;SDS011;32037;50.820;6.494;2023-03-02T03:04:29;3.85;;;2.80;;
46308;SDS011;32037;50.820;6.494;2023-03-02T03:07:01;4.95;;;2.90;;
46308;SDS011;32037;50.820;6.494;2023-03-02T03:09:31;3.67;;;2.40;;
46308;SDS011;32037;50.820;6.494;2023-03-02T03:12:02;3.72;;;2.63;;
46308;SDS011;32037;50.820;6.494;2023-03-02T03:14:36;3.75;;;3.08;;
46308;SDS011;32037;50.820;6.494;2023-03-02T03:17:27;4.40;;;3.42;;
46308;SDS011;32037;50.820;6.494;2023-03-02T03:19:59;3.05;;;2.60;;
46308;SDS011;32037;50.820;6.494;2023-03-02T03:22:35;3.22;;;2.50;;
46308;SDS011;32037;50.820;6.494;2023-03-02T03:25:07;3.65;;;2.65;;
46308;SDS011;32037;50.820;6.494;2023-03-02T03:27:43;3.72;;;2.88;;
46308;SDS011;32037;50.820;6.494;2023-03-02T03:30:13;5.05;;;4.25;;
46308;SDS011;32037;50.820;6.494;2023-03-02T03:32:43;6.10;;;4.55;;
46308;SDS011;32037;50.820;6.494;2023-03-02T03:35:13;5.65;;;4.15;;
46308;SDS011;32037;50.820;6.494;2023-03-02T03:37:43;4.07;;;2.90;;
46308;SDS011;32037;50.820;6.494;2023-03-02T03:40:15;4.15;;;3.30;;
46308;SDS011;32037;50.820;6.494;2023-03-02T03:42:46;4.68;;;2.55;;
46308;SDS011;32037;50.820;6.494;2023-03-02T03:45:15;5.00;;;3.72;;
46308;SDS011;32037;50.820;6.494;2023-03-02T03:47:44;3.83;;;2.75;;
46308;SDS011;32037;50.820;6.494;2023-03-02T03:50:12;3.83;;;2.88;;
46308;SDS011;32037;50.820;6.494;2023-03-02T03:52:42;3.40;;;2.92;;
46308;SDS011;32037;50.820;6.494;2023-03-02T03:55:18;4.90;;;3.45;;
46308;SDS011;32037;50.820;6.494;2023-03-02T03:57:50;5.72;;;3.20;;
46308;SDS011;32037;50.820;6.494;2023-03-02T04:00:19;3.60;;;3.20;;
46308;SDS011;32037;50.820;6.494;2023-03-02T04:02:53;4.53;;;3.15;;
46308;SDS011;32037;50.820;6.494;2023-03-02T04:05:24;4.85;;;3.50;;
46308;SDS011;32037;50.820;6.494;2023-03-02T04:07:55;3.95;;;2.78;;
46308;SDS011;32037;50.820;6.494;2023-03-02T04:10:24;4.72;;;4.07;;
46308;SDS011;32037;50.820;6.494;2023-03-02T04:12:55;4.07;;;3.38;;
46308;SDS011;32037;50.820;6.494;2023-03-02T04:15:24;4.30;;;3.47;;
46308;SDS011;32037;50.820;6.494;2023-03-02T04:17:54;5.95;;;4.03;;
46308;SDS011;32037;50.820;6.494;2023-03-02T04:20:23;4.22;;;2.85;;
46308;SDS011;32037;50.820;6.494;2023-03-02T04:22:55;5.68;;;2.92;;
46308;SDS011;32037;50.820;6.494;2023-03-02T04:25:25;3.47;;;3.08;;
46308;SDS011;32037;50.820;6.494;2023-03-02T04:28:04;5.15;;;4.03;;
46308;SDS011;32037;50.820;6.494;2023-03-02T04:30:36;5.03;;;3.30;;
46308;SDS011;32037;50.820;6.494;2023-03-02T04:33:05;5.13;;;3.47;;
46308;SDS011;32037;50.820;6.494;2023-03-02T04:35:34;5.05;;;3.42;;
46308;SDS011;32037;50.820;6.494;2023-03-02T04:38:03;5.32;;;4.30;;
46308;SDS011;32037;50.820;6.494;2023-03-02T04:40:32;4.72;;;3.35;;
46308;SDS011;32037;50.820;6.494;2023-03-02T04:43:01;4.68;;;3.40;;
46308;SDS011;32037;50.820;6.494;2023-03-02T04:45:31;4.05;;;3.35;;
46308;SDS011;32037;50.820;6.494;2023-03-02T04:47:59;3.70;;;3.20;;
46308;SDS011;32037;50.820;6.494;2023-03-02T04:50:28;4.05;;;2.83;;
46308;SDS011;32037;50.820;6.494;2023-03-02T04:52:57;4.95;;;3.05;;
46308;SDS011;32037;50.820;6.494;2023-03-02T04:55:26;5.75;;;3.75;;
46308;SDS011;32037;50.820;6.494;2023-03-02T04:57:54;4.40;;;2.95;;
46308;SDS011;32037;50.820;6.494;2023-03-02T05:00:23;5.72;;;3.97;;
46308;SDS011;32037;50.820;6.494;2023-03-02T05:02:55;3.60;;;3.10;;
46308;SDS011;32037;50.820;6.494;2023-03-02T05:05:24;6.43;;;4.78;;
46308;SDS011;32037;50.820;6.494;2023-03-02T05:08:12;4.18;;;3.05;;
46308;SDS011;32037;50.820;6.494;2023-03-02T05:10:40;4.55;;;3.15;;
46308;SDS011;32037;50.820;6.494;2023-03-02T05:13:09;4.05;;;3.40;;
46308;SDS011;32037;50.820;6.494;2023-03-02T05:15:38;5.38;;;3.63;;
46308;SDS011;32037;50.820;6.494;2023-03-02T05:18:10;6.05;;;3.05;;
46308;SDS011;32037;50.820;6.494;2023-03-02T05:20:40;3.65;;;3.13;;
46308;SDS011;32037;50.820;6.494;2023-03-02T05:23:09;4.20;;;2.97;;
46308;SDS011;32037;50.820;6.494;2023-03-02T05:25:42;3.83;;;2.95;;
46308;SDS011;32037;50.820;6.494;2023-03-02T05:28:11;3.30;;;2.90;;
46308;SDS011;32037;50.820;6.494;2023-03-02T05:30:39;3.95;;;2.92;;
46308;SDS011;32037;50.820;6.494;2023-03-02T05:33:08;4.22;;;2.80;;
46308;SDS011;32037;50.820;6.494;2023-03-02T05:35:38;4.95;;;3.08;;
46308;SDS011;32037;50.820;6.494;2023-03-02T05:38:07;3.00;;;2.60;;
46308;SDS011;32037;50.820;6.494;2023-03-02T05:40:37;4.13;;;2.92;;
46308;SDS011;32037;50.820;6.494;2023-03-02T05:43:06;5.68;;;3.38;;
46308;SDS011;32037;50.820;6.494;2023-03-02T05:45:35;5.60;;;3.50;;
46308;SDS011;32037;50.820;6.494;2023-03-02T05:48:05;3.20;;;2.88;;
46308;SDS011;32037;50.820;6.494;2023-03-02T05:50:34;4.10;;;3.13;;
46308;SDS011;32037;50.820;6.494;2023-03-02T05:53:04;3.67;;;2.92;;
46308;SDS011;32037;50.820;6.494;2023-03-02T05:55:32;4.30;;;3.03;;
46308;SDS011;32037;50.820;6.494;2023-03-02T05:58:02;3.92;;;3.17;;
46308;SDS011;32037;50.820;6.494;2023-03-02T06:00:33;4.22;;;3.15;;
46308;SDS011;32037;50.820;6.494;2023-03-02T06:03:10;5.10;;;3.13;;
46308;SDS011;32037;50.820;6.494;2023-03-02T06:05:39;4.57;;;3.42;;
46308;SDS011;32037;50.820;6.494;2023-03-02T06:08:09;3.95;;;3.00;;
46308;SDS011;32037;50.820;6.494;2023-03-02T06:10:38;3.83;;;3.13;;
46308;SDS011;32037;50.820;6.494;2023-03-02T06:13:06;3.60;;;3.20;;
46308;SDS011;32037;50.820;6.494;2023-03-02T06:15:35;4.93;;;2.85;;
46308;SDS011;32037;50.820;6.494;2023-03-02T06:18:05;5.18;;;3.53;;
46308;SDS011;32037;50.820;6.494;2023-03-02T06:20:33;4.63;;;3.50;;
46308;SDS011;32037;50.820;6.494;2023-03-02T06:23:02;3.70;;;3.13;;
46308;SDS011;32037;50.820;6.494;2023-03-02T06:25:32;4.30;;;3.15;;
46308;SDS011;32037;50.820;6.494;2023-03-02T06:28:01;3.55;;;3.05;;
46308;SDS011;32037;50.820;6.494;2023-03-02T06:30:30;3.65;;;3.05;;
46308;SDS011;32037;50.820;6.494;2023-03-02T06:32:58;4.47;;;3.67;;
46308;SDS011;32037;50.820;6.494;2023-03-02T06:35:27;5.22;;;3.17;;
46308;SDS011;32037;50.820;6.494;2023-03-02T06:37:56;4.70;;;2.63;;
46308;SDS011;32037;50.820;6.494;2023-03-02T06:40:24;4.45;;;2.90;;
46308;SDS011;32037;50.820;6.494;2023-03-02T06:42:54;5.03;;;3.30;;
46308;SDS011;32037;50.820;6.494;2023-03-02T06:45:27;3.35;;;3.05;;
46308;SDS011;32037;50.820;6.494;2023-03-02T06:47:59;3.20;;;2.47;;
46308;SDS011;32037;50.820;6.494;2023-03-02T06:50:28;4.43;;;3.30;;
46308;SDS011;32037;50.820;6.494;2023-03-02T06:52:57;4.60;;;2.85;;
46308;SDS011;32037;50.820;6.494;2023-03-02T06:55:25;3.10;;;2.75;;
46308;SDS011;32037;50.820;6.494;2023-03-02T06:57:55;3.63;;;2.53;;
46308;SDS011;32037;50.820;6.494;2023-03-02T07:00:24;4.55;;;3.50;;
46308;SDS011;32037;50.820;6.494;2023-03-02T07:02:54;5.95;;;2.97;;
46308;SDS011;32037;50.820;6.494;2023-03-02T07:05:23;4.47;;;3.03;;
46308;SDS011;32037;50.820;6.494;2023-03-02T07:07:51;4.80;;;3.47;;
46308;SDS011;32037;50.820;6.494;2023-03-02T07:10:20;3.47;;;3.17;;
46308;SDS011;32037;50.820;6.494;2023-03-02T07:12:49;4.57;;;2.95;;
46308;SDS011;32037;50.820;6.494;2023-03-02T07:15:19;4.93;;;2.95;;
46308;SDS011;32037;50.820;6.494;2023-03-02T07:17:48;3.35;;;2.67;;
46308;SDS011;32037;50.820;6.494;2023-03-02T07:20:17;4.30;;;3.35;;
46308;SDS011;32037;50.820;6.494;2023-03-02T07:22:46;4.50;;;3.40;;
46308;SDS011;32037;50.820;6.494;2023-03-02T07:25:15;5.35;;;3.55;;
46308;SDS011;32037;50.820;6.494;2023-03-02T07:27:43;3.72;;;2.30;;
46308;SDS011;32037;50.820;6.494;2023-03-02T07:30:12;4.45;;;2.90;;
46308;SDS011;32037;50.820;6.494;2023-03-02T07:32:43;6.13;;;4.30;;
46308;SDS011;32037;50.820;6.494;2023-03-02T07:35:11;4.35;;;2.70;;
46308;SDS011;32037;50.820;6.494;2023-03-02T07:37:40;6.53;;;3.60;;
46308;SDS011;32037;50.820;6.494;2023-03-02T07:40:09;4.28;;;3.70;;
46308;SDS011;32037;50.820;6.494;2023-03-02T07:42:39;3.75;;;3.00;;
46308;SDS011;32037;50.820;6.494;2023-03-02T07:45:08;5.60;;;3.67;;
46308;SDS011;32037;50.820;6.494;2023-03-02T07:47:38;4.47;;;2.85;;
46308;SDS011;32037;50.820;6.494;2023-03-02T07:50:09;4.05;;;3.00;;
46308;SDS011;32037;50.820;6.494;2023-03-02T07:52:38;4.85;;;3.40;;
46308;SDS011;32037;50.820;6.494;2023-03-02T07:55:07;4.13;;;3.20;;
46308;SDS011;32037;50.820;6.494;2023-03-02T07:57:36;4.95;;;3.72;;
46308;SDS011;32037;50.820;6.494;2023-03-02T08:00:05;4.80;;;3.20;;
46308;SDS011;32037;50.820;6.494;2023-03-02T08:02:38;3.45;;;3.08;;
46308;SDS011;32037;50.820;6.494;2023-03-02T08:05:08;6.35;;;4.25;;
46308;SDS011;32037;50.820;6.494;2023-03-02T08:07:38;6.80;;;3.95;;
46308;SDS011;32037;50.820;6.494;2023-03-02T08:10:08;3.83;;;3.15;;
46308;SDS011;32037;50.820;6.494;2023-03-02T08:12:38;5.20;;;3.20;;
46308;SDS011;32037;50.820;6.494;2023-03-02T08:15:09;3.58;;;2.85;;
46308;SDS011;32037;50.820;6.494;2023-03-02T08:17:38;3.00;;;2.70;;
46308;SDS011;32037;50.820;6.494;2023-03-02T08:20:07;5.70;;;3.65;;
46308;SDS011;32037;50.820;6.494;2023-03-02T08:22:37;3.40;;;2.53;;
46308;SDS011;32037;50.820;6.494;2023-03-02T08:25:07;3.83;;;3.00;;
46308;SDS011;32037;50.820;6.494;2023-03-02T08:27:36;4.30;;;2.95;;
46308;SDS011;32037;50.820;6.494;2023-03-02T08:30:06;4.97;;;2.95;;
46308;SDS011;32037;50.820;6.494;2023-03-02T08:32:36;3.63;;;2.90;;
46308;SDS011;32037;50.820;6.494;2023-03-02T08:35:05;4.20;;;2.92;;
46308;SDS011;32037;50.820;6.494;2023-03-02T08:37:36;3.70;;;2.78;;
46308;SDS011;32037;50.820;6.494;2023-03-02T08:40:05;3.13;;;2.60;;
46308;SDS011;32037;50.820;6.494;2023-03-02T08:42:34;3.95;;;2.40;;
46308;SDS011;32037;50.820;6.494;2023-03-02T08:45:03;3.47;;;2.75;;
46308;SDS011;32037;50.820;6.494;2023-03-02T08:47:32;3.08;;;2.50;;
46308;SDS011;32037;50.820;6.494;2023-03-02T08:50:04;3.10;;;2.30;;
46308;SDS011;32037;50.820;6.494;2023-03-02T08:52:34;3.10;;;2.58;;
46308;SDS011;32037;50.820;6.494;2023-03-02T08:55:04;3.60;;;2.55;;
46308;SDS011;32037;50.820;6.494;2023-03-02T08:57:37;3.42;;;2.60;;
46308;SDS011;32037;50.820;6.494;2023-03-02T09:00:07;2.90;;;2.63;;
46308;SDS011;32037;50.820;6.494;2023-03-02T09:02:40;4.22;;;2.95;;
46308;SDS011;32037;50.820;6.494;2023-03-02T09:05:09;4.13;;;2.75;;
46308;SDS011;32037;50.820;6.494;2023-03-02T09:07:39;3.28;;;2.60;;
46308;SDS011;32037;50.820;6.494;2023-03-02T09:10:08;4.47;;;2.92;;
46308;SDS011;32037;50.820;6.494;2023-03-02T09:12:38;3.60;;;2.47;;
46308;SDS011;32037;50.820;6.494;2023-03-02T09:15:06;4.25;;;2.85;;
46308;SDS011;32037;50.820;6.494;2023-03-02T09:17:35;3.22;;;2.90;;
46308;SDS011;32037;50.820;6.494;2023-03-02T09:20:04;3.42;;;2.72;;
46308;SDS011;32037;50.820;6.494;2023-03-02T09:22:34;2.67;;;2.30;;
46308;SDS011;32037;50.820;6.494;2023-03-02T09:25:05;3.50;;;2.80;;
46308;SDS011;32037;50.820;6.494;2023-03-02T09:27:35;4.68;;;3.30;;
46308;SDS011;32037;50.820;6.494;2023-03-02T09:30:03;4.30;;;2.75;;
46308;SDS011;32037;50.820;6.494;2023-03-02T09:32:33;4.40;;;3.60;;
46308;SDS011;32037;50.820;6.494;2023-03-02T09:35:02;4.75;;;3.60;;
46308;SDS011;32037;50.820;6.494;2023-03-02T09:37:31;4.38;;;3.10;;
46308;SDS011;32037;50.820;6.494;2023-03-02T09:40:01;4.45;;;2.85;;
46308;SDS011;32037;50.820;6.494;2023-03-02T09:42:35;4.05;;;3.65;;
46308;SDS011;32037;50.820;6.494;2023-03-02T09:45:44;4.05;;;2.92;;
46308;SDS011;32037;50.820;6.494;2023-03-02T09:48:35;4.20;;;2.75;;
46308;SDS011;32037;50.820;6.494;2023-03-02T09:51:13;4.30;;;2.67;;
46308;SDS011;32037;50.820;6.494;2023-03-02T09:53:52;4.95;;;3.22;;
46308;SDS011;32037;50.820;6.494;2023-03-02T09:56:30;3.65;;;3.03;;
46308;SDS011;32037;50.820;6.494;2023-03-02T09:59:05;4.07;;;2.63;;
46308;SDS011;32037;50.820;6.494;2023-03-02T10:01:40;4.82;;;2.70;;
46308;SDS011;32037;50.820;6.494;2023-03-02T10:04:16;5.45;;;3.50;;
46308;SDS011;32037;50.820;6.494;2023-03-02T10:06:50;3.95;;;3.03;;
46308;SDS011;32037;50.820;6.494;2023-03-02T10:09:23;3.92;;;2.25;;
46308;SDS011;32037;50.820;6.494;2023-03-02T10:11:56;4.03;;;3.40;;
46308;SDS011;32037;50.820;6.494;2023-03-02T10:14:37;4.13;;;2.50;;
46308;SDS011;32037;50.820;6.494;2023-03-02T10:17:22;4.25;;;2.22;;
46308;SDS011;32037;50.820;6.494;2023-03-02T10:20:04;5.20;;;3.10;;
46308;SDS011;32037;50.820;6.494;2023-03-02T10:22:41;3.97;;;2.63;;
46308;SDS011;32037;50.820;6.494;2023-03-02T10:25:18;4.43;;;2.40;;
46308;SDS011;32037;50.820;6.494;2023-03-02T10:28:00;4.53;;;2.70;;
46308;SDS011;32037;50.820;6.494;2023-03-02T10:30:38;3.58;;;2.47;;
46308;SDS011;32037;50.820;6.494;2023-03-02T10:33:08;4.03;;;2.35;;
46308;SDS011;32037;50.820;6.494;2023-03-02T10:35:43;3.75;;;3.25;;
46308;SDS011;32037;50.820;6.494;2023-03-02T10:38:15;3.05;;;2.45;;
46308;SDS011;32037;50.820;6.494;2023-03-02T10:40:46;3.85;;;2.80;;
46308;SDS011;32037;50.820;6.494;2023-03-02T10:43:19;2.70;;;2.25;;
46308;SDS011;32037;50.820;6.494;2023-03-02T10:46:01;5.63;;;3.00;;
46308;SDS011;32037;50.820;6.494;2023-03-02T10:48:43;2.95;;;2.40;;
46308;SDS011;32037;50.820;6.494;2023-03-02T10:51:23;4.10;;;2.70;;
46308;SDS011;32037;50.820;6.494;2023-03-02T10:54:03;2.95;;;2.28;;
46308;SDS011;32037;50.820;6.494;2023-03-02T10:56:33;3.92;;;3.25;;
46308;SDS011;32037;50.820;6.494;2023-03-02T10:59:11;3.60;;;3.22;;
46308;SDS011;32037;50.820;6.494;2023-03-02T11:01:58;3.55;;;3.17;;
46308;SDS011;32037;50.820;6.494;2023-03-02T11:04:28;4.05;;;2.60;;
46308;SDS011;32037;50.820;6.494;2023-03-02T11:07:06;3.38;;;2.60;;
46308;SDS011;32037;50.820;6.494;2023-03-02T11:09:37;3.67;;;2.63;;
46308;SDS011;32037;50.820;6.494;2023-03-02T11:12:10;3.35;;;2.40;;
46308;SDS011;32037;50.820;6.494;2023-03-02T11:14:41;5.40;;;2.97;;
46308;SDS011;32037;50.820;6.494;2023-03-02T11:17:24;3.83;;;2.45;;
46308;SDS011;32037;50.820;6.494;2023-03-02T11:19:57;3.88;;;2.53;;
46308;SDS011;32037;50.820;6.494;2023-03-02T11:22:30;3.05;;;2.28;;
46308;SDS011;32037;50.820;6.494;2023-03-02T11:25:04;3.20;;;2.35;;
46308;SDS011;32037;50.820;6.494;2023-03-02T11:27:38;5.28;;;3.40;;
46308;SDS011;32037;50.820;6.494;2023-03-02T11:30:12;6.15;;;2.70;;
46308;SDS011;32037;50.820;6.494;2023-03-02T11:32:46;3.85;;;2.45;;
46308;SDS011;32037;50.820;6.494;2023-03-02T11:35:23;3.88;;;2.53;;
46308;SDS011;32037;50.820;6.494;2023-03-02T11:38:00;3.17;;;2.85;;
46308;SDS011;32037;50.820;6.494;2023-03-02T11:40:39;5.53;;;3.08;;
46308;SDS011;32037;50.820;6.494;2023-03-02T11:43:12;3.30;;;2.33;;
46308;SDS011;32037;50.820;6.494;2023-03-02T11:45:42;3.58;;;2.60;;
46308;SDS011;32037;50.820;6.494;2023-03-02T11:48:20;3.60;;;2.83;;
46308;SDS011;32037;50.820;6.494;2023-03-02T11:50:55;3.90;;;2.38;;
46308;SDS011;32037;50.820;6.494;2023-03-02T11:53:26;3.50;;;2.70;;
46308;SDS011;32037;50.820;6.494;2023-03-02T11:55:59;3.05;;;2.55;;
46308;SDS011;32037;50.820;6.494;2023-03-02T11:58:27;3.42;;;2.50;;
46308;SDS011;32037;50.820;6.494;2023-03-02T12:00:58;3.08;;;2.30;;
46308;SDS011;32037;50.820;6.494;2023-03-02T12:03:37;3.40;;;2.70;;
46308;SDS011;32037;50.820;6.494;2023-03-02T12:06:22;4.32;;;2.75;;
46308;SDS011;32037;50.820;6.494;2023-03-02T12:08:53;3.05;;;2.70;;
46308;SDS011;32037;50.820;6.494;2023-03-02T12:11:43;3.70;;;2.75;;
46308;SDS011;32037;50.820;6.494;2023-03-02T12:14:26;4.03;;;2.72;;
46308;SDS011;32037;50.820;6.494;2023-03-02T12:17:03;3.83;;;2.72;;
46308;SDS011;32037;50.820;6.494;2023-03-02T12:19:47;4.00;;;2.70;;
46308;SDS011;32037;50.820;6.494;2023-03-02T12:22:26;3.15;;;2.50;;
46308;SDS011;32037;50.820;6.494;2023-03-02T12:24:59;4.47;;;2.80;;
46308;SDS011;32037;50.820;6.494;2023-03-02T12:27:34;5.20;;;2.50;;
46308;SDS011;32037;50.820;6.494;2023-03-02T12:30:10;3.30;;;2.58;;
46308;SDS011;32037;50.820;6.494;2023-03-02T12:33:01;2.50;;;2.28;;
46308;SDS011;32037;50.820;6.494;2023-03-02T12:35:33;3.45;;;2.78;;
46308;SDS011;32037;50.820;6.494;2023-03-02T12:38:02;4.63;;;3.33;;
46308;SDS011;32037;50.820;6.494;2023-03-02T12:40:39;4.15;;;2.50;;
46308;SDS011;32037;50.820;6.494;2023-03-02T12:43:24;4.10;;;2.40;;
46308;SDS011;32037;50.820;6.494;2023-03-02T12:46:04;5.65;;;2.45;;
46308;SDS011;32037;50.820;6.494;2023-03-02T12:48:59;4.32;;;3.28;;
46308;SDS011;32037;50.820;6.494;2023-03-02T12:51:49;4.18;;;3.00;;
46308;SDS011;32037;50.820;6.494;2023-03-02T12:54:20;4.47;;;2.80;;
46308;SDS011;32037;50.820;6.494;2023-03-02T12:57:00;5.15;;;3.20;;
46308;SDS011;32037;50.820;6.494;2023-03-02T12:59:34;5.32;;;3.53;;
46308;SDS011;32037;50.820;6.494;2023-03-02T13:02:13;4.30;;;3.35;;
46308;SDS011;32037;50.820;6.494;2023-03-02T13:04:50;5.22;;;3.90;;
46308;SDS011;32037;50.820;6.494;2023-03-02T13:07:23;4.93;;;3.72;;
46308;SDS011;32037;50.820;6.494;2023-03-02T13:09:54;5.05;;;3.47;;
46308;SDS011;32037;50.820;6.494;2023-03-02T13:12:25;4.65;;;3.40;;
46308;SDS011;32037;50.820;6.494;2023-03-02T13:14:55;4.90;;;4.00;;
46308;SDS011;32037;50.820;6.494;2023-03-02T13:17:26;5.00;;;3.80;;
46308;SDS011;32037;50.820;6.494;2023-03-02T13:19:57;4.55;;;3.00;;
46308;SDS011;32037;50.820;6.494;2023-03-02T13:22:27;3.80;;;2.88;;
46308;SDS011;32037;50.820;6.494;2023-03-02T13:24:57;3.70;;;3.30;;
46308;SDS011;32037;50.820;6.494;2023-03-02T13:27:28;3.75;;;2.95;;
46308;SDS011;32037;50.820;6.494;2023-03-02T13:30:06;5.20;;;3.50;;
46308;SDS011;32037;50.820;6.494;2023-03-02T13:32:37;4.43;;;3.55;;
46308;SDS011;32037;50.820;6.494;2023-03-02T13:35:14;6.68;;;3.53;;
46308;SDS011;32037;50.820;6.494;2023-03-02T13:37:53;4.85;;;3.60;;
46308;SDS011;32037;50.820;6.494;2023-03-02T13:40:31;3.58;;;3.17;;
46308;SDS011;32037;50.820;6.494;2023-03-02T13:43:20;4.53;;;3.28;;
46308;SDS011;32037;50.820;6.494;2023-03-02T13:45:57;3.83;;;3.10;;
46308;SDS011;32037;50.820;6.494;2023-03-02T13:48:28;3.95;;;3.10;;
46308;SDS011;32037;50.820;6.494;2023-03-02T13:50:59;4.40;;;2.85;;
46308;SDS011;32037;50.820;6.494;2023-03-02T13:53:30;3.35;;;2.67;;
46308;SDS011;32037;50.820;6.494;2023-03-02T13:56:03;6.07;;;4.22;;
46308;SDS011;32037;50.820;6.494;2023-03-02T13:58:33;8.00;;;4.95;;
46308;SDS011;32037;50.820;6.494;2023-03-02T14:01:05;12.75;;;7.40;;
46308;SDS011;32037;50.820;6.494;2023-03-02T14:03:34;12.75;;;6.90;;
46308;SDS011;32037;50.820;6.494;2023-03-02T14:06:03;13.60;;;7.47;;
46308;SDS011;32037;50.820;6.494;2023-03-02T14:08:33;9.68;;;7.18;;
46308;SDS011;32037;50.820;6.494;2023-03-02T14:11:02;10.07;;;7.32;;
46308;SDS011;32037;50.820;6.494;2023-03-02T14:13:33;11.15;;;6.95;;
46308;SDS011;32037;50.820;6.494;2023-03-02T14:16:05;12.43;;;7.70;;
46308;SDS011;32037;50.820;6.494;2023-03-02T14:18:35;14.23;;;7.90;;
46308;SDS011;32037;50.820;6.494;2023-03-02T14:21:09;12.10;;;7.82;;
46308;SDS011;32037;50.820;6.494;2023-03-02T14:23:41;12.48;;;7.80;;
46308;SDS011;32037;50.820;6.494;2023-03-02T14:26:22;13.35;;;7.82;;
46308;SDS011;32037;50.820;6.494;2023-03-02T14:28:57;12.07;;;8.65;;
46308;SDS011;32037;50.820;6.494;2023-03-02T14:31:31;12.55;;;7.85;;
46308;SDS011;32037;50.820;6.494;2023-03-02T14:34:01;11.60;;;7.40;;
46308;SDS011;32037;50.820;6.494;2023-03-02T14:36:30;17.92;;;8.02;;
46308;SDS011;32037;50.820;6.494;2023-03-02T14:39:03;10.65;;;7.07;;
46308;SDS011;32037;50.820;6.494;2023-03-02T14:41:45;9.65;;;7.00;;
46308;SDS011;32037;50.820;6.494;2023-03-02T14:44:20;10.68;;;6.97;;
46308;SDS011;32037;50.820;6.494;2023-03-02T14:46:48;10.77;;;6.53;;
46308;SDS011;32037;50.820;6.494;2023-03-02T14:49:17;10.90;;;6.70;;
46308;SDS011;32037;50.820;6.494;2023-03-02T14:51:47;11.05;;;7.15;;
46308;SDS011;32037;50.820;6.494;2023-03-02T14:54:23;11.00;;;7.65;;
46308;SDS011;32037;50.820;6.494;2023-03-02T14:56:53;10.45;;;6.70;;
46308;SDS011;32037;50.820;6.494;2023-03-02T14:59:21;10.45;;;7.70;;
46308;SDS011;32037;50.820;6.494;2023-03-02T15:01:50;10.60;;;6.07;;
46308;SDS011;32037;50.820;6.494;2023-03-02T15:04:18;8.73;;;6.38;;
46308;SDS011;32037;50.820;6.494;2023-03-02T15:06:47;10.77;;;6.40;;
46308;SDS011;32037;50.820;6.494;2023-03-02T15:09:16;8.95;;;6.70;;
46308;SDS011;32037;50.820;6.494;2023-03-02T15:11:46;8.15;;;6.43;;
46308;SDS011;32037;50.820;6.494;2023-03-02T15:14:14;10.88;;;5.80;;
46308;SDS011;32037;50.820;6.494;2023-03-02T15:16:43;10.85;;;6.72;;
46308;SDS011;32037;50.820;6.494;2023-03-02T15:19:12;8.80;;;6.55;;